Time;durP1;ratioP1;P1;durP2;ratioP2;P2;SDS_P1;SDS_P2;PMS_P1;PMS_P2;Temp;Humidity;BMP_temperature;BMP_pressure;BME280_temperature;BME280_humidity;BME280_pressure;Samples;Min_cycle;Max_cycle;Signal;HPM_P1;HPM_P2
2022/05/09 00:02:11;;;;;;;6.57;2.00;;;10.80;99.90;;;;;;5053063;28;20321;-39
2022/05/09 00:04:37;;;;;;;3.67;2.03;;;10.80;99.90;;;;;;5052871;28;20694;-40
2022/05/09 00:07:04;;;;;;;5.87;2.03;;;10.70;99.90;;;;;;5052762;28;20207;-41
2022/05/09 00:09:30;;;;;;;5.83;2.10;;;10.60;99.90;;;;;;5053058;28;20187;-38
2022/05/09 00:11:56;;;;;;;4.23;2.00;;;10.60;99.90;;;;;;5053045;28;20182;-38
2022/05/09 00:14:21;;;;;;;5.37;2.30;;;10.50;99.90;;;;;;5052978;28;20218;-40
2022/05/09 00:16:47;;;;;;;4.43;2.20;;;10.50;99.90;;;;;;5052621;28;20207;-42
2022/05/09 00:19:17;;;;;;;5.37;2.37;;;10.50;99.90;;;;;;5053126;28;20548;-39
2022/05/09 00:21:44;;;;;;;4.03;2.07;;;10.40;99.90;;;;;;5054003;28;20674;-40
2022/05/09 00:24:13;;;;;;;4.67;2.07;;;10.40;99.90;;;;;;5057370;28;20535;-41
2022/05/09 00:26:39;;;;;;;3.70;1.97;;;10.40;99.90;;;;;;5056812;28;20191;-38
2022/05/09 00:29:06;;;;;;;4.13;2.23;;;10.30;99.90;;;;;;5056854;28;20178;-40
2022/05/09 00:31:32;;;;;;;5.40;2.13;;;10.30;99.90;;;;;;5056794;28;20217;-41
2022/05/09 00:33:57;;;;;;;3.80;2.27;;;10.20;99.90;;;;;;5056374;28;20659;-40
2022/05/09 00:36:23;;;;;;;6.23;2.60;;;10.20;99.90;;;;;;5056318;28;20176;-40
2022/05/09 00:38:51;;;;;;;4.13;2.13;;;10.20;99.90;;;;;;5056457;28;20715;-40
2022/05/09 00:41:31;;;;;;;5.30;2.43;;;10.20;99.90;;;;;;5056387;28;20181;-42
2022/05/09 00:43:59;;;;;;;7.83;2.30;;;10.20;99.90;;;;;;5056605;28;20160;-40
2022/05/09 00:46:25;;;;;;;3.97;2.20;;;10.20;99.90;;;;;;5056423;28;20187;-42
2022/05/09 00:48:51;;;;;;;5.23;2.47;;;10.10;99.90;;;;;;5056403;28;20186;-39
2022/05/09 00:51:23;;;;;;;6.43;2.27;;;10.10;99.90;;;;;;5056733;28;20658;-40
2022/05/09 00:53:50;;;;;;;6.17;2.50;;;11.50;99.90;;;;;;5056312;28;20207;-39
2022/05/09 00:56:29;;;;;;;6.33;2.63;;;10.10;99.90;;;;;;5056598;28;20189;-39
2022/05/09 00:58:58;;;;;;;4.20;2.13;;;10.10;99.90;;;;;;5056089;28;20670;-41
2022/05/09 01:01:24;;;;;;;5.40;2.40;;;10.10;99.90;;;;;;5056234;28;20625;-42
2022/05/09 01:03:57;;;;;;;6.40;2.50;;;10.10;99.90;;;;;;5056044;28;20204;-41
2022/05/09 01:06:23;;;;;;;4.60;2.20;;;10.10;99.90;;;;;;5055857;28;20160;-41
2022/05/09 01:08:48;;;;;;;3.93;2.03;;;10.10;99.90;;;;;;5055861;28;20174;-42
2022/05/09 01:11:20;;;;;;;4.30;2.20;;;10.10;99.90;;;;;;5055676;28;20179;-41
2022/05/09 01:13:50;;;;;;;4.20;2.17;;;10.10;99.90;;;;;;5055789;28;20199;-42
2022/05/09 01:16:18;;;;;;;4.03;2.70;;;10.10;99.90;;;;;;5055769;28;20177;-41
2022/05/09 01:18:45;;;;;;;7.07;2.87;;;10.10;99.90;;;;;;5055953;28;20737;-41
2022/05/09 01:21:37;;;;;;;4.70;2.43;;;10.00;99.90;;;;;;5055624;28;20169;-41
2022/05/09 01:24:06;;;;;;;6.30;2.53;;;10.00;99.90;;;;;;5055858;28;20170;-42
2022/05/09 01:26:33;;;;;;;3.40;2.10;;;10.00;99.90;;;;;;5055398;28;20186;-39
2022/05/09 01:29:05;;;;;;;4.27;2.40;;;10.00;99.90;;;;;;5055434;28;20210;-40
2022/05/09 01:31:31;;;;;;;3.90;2.33;;;10.00;99.90;;;;;;5055634;28;20185;-42
2022/05/09 01:33:59;;;;;;;5.83;2.70;;;9.90;99.90;;;;;;5054547;28;20205;-40
2022/05/09 01:36:32;;;;;;;5.93;2.53;;;9.90;99.90;;;;;;5055500;28;20179;-41
2022/05/09 01:39:04;;;;;;;7.57;2.50;;;9.90;99.90;;;;;;5055681;28;20277;-41
2022/05/09 01:41:39;;;;;;;4.33;2.47;;;9.90;99.90;;;;;;5055901;28;20239;-42
2022/05/09 01:44:06;;;;;;;5.27;2.90;;;9.90;99.90;;;;;;5056035;28;20617;-41
2022/05/09 01:46:32;;;;;;;6.13;2.80;;;9.90;99.90;;;;;;5055696;28;20189;-41
2022/05/09 01:51:46;;;;;;;5.70;2.27;;;9.90;99.90;;;;;;5055441;28;20542;-40
2022/05/09 01:54:12;;;;;;;4.07;2.17;;;9.80;99.90;;;;;;5054827;28;20240;-42
2022/05/09 01:56:40;;;;;;;4.37;2.57;;;9.80;99.90;;;;;;5053752;28;20629;-41
2022/05/09 01:59:08;;;;;;;5.67;2.60;;;9.70;99.90;;;;;;5055276;28;20188;-41
2022/05/09 02:01:40;;;;;;;7.00;2.60;;;9.70;99.90;;;;;;5055426;28;20165;-43
2022/05/09 02:04:06;;;;;;;4.67;2.30;;;9.60;99.90;;;;;;5055328;28;20172;-41
2022/05/09 02:06:32;;;;;;;5.47;2.67;;;9.60;99.90;;;;;;5055521;28;20239;-41
2022/05/09 02:08:58;;;;;;;3.43;2.60;;;9.50;99.90;;;;;;5054775;28;20635;-39
2022/05/09 02:11:23;;;;;;;4.63;3.20;;;9.50;99.90;;;;;;5054652;28;20231;-39
2022/05/09 02:13:49;;;;;;;4.00;2.47;;;9.40;99.90;;;;;;5054556;28;20250;-42
2022/05/09 02:16:15;;;;;;;3.70;2.37;;;9.30;99.90;;;;;;5054825;28;20182;-41
2022/05/09 02:18:40;;;;;;;6.40;3.10;;;9.30;99.90;;;;;;5054388;28;20205;-39
2022/05/09 02:21:06;;;;;;;4.67;2.20;;;9.30;99.90;;;;;;5054748;28;20181;-42
2022/05/09 02:23:33;;;;;;;3.63;2.60;;;9.30;99.90;;;;;;5054428;28;20180;-40
2022/05/09 02:25:59;;;;;;;4.60;2.80;;;9.20;99.90;;;;;;5054413;28;20190;-40
2022/05/09 02:28:25;;;;;;;4.73;2.77;;;9.20;99.90;;;;;;5054505;28;20200;-41
2022/05/09 02:30:50;;;;;;;4.03;2.73;;;9.20;99.90;;;;;;5052902;28;20196;-39
2022/05/09 02:33:16;;;;;;;5.00;2.73;;;9.10;99.90;;;;;;5054395;28;20191;-40
2022/05/09 02:35:43;;;;;;;4.63;2.50;;;9.10;99.90;;;;;;5054258;28;20298;-39
2022/05/09 02:38:09;;;;;;;3.83;2.80;;;9.10;99.90;;;;;;5053916;28;20257;-39
2022/05/09 02:40:35;;;;;;;4.67;2.50;;;9.10;99.90;;;;;;5054119;28;20164;-40
2022/05/09 02:43:02;;;;;;;4.20;2.20;;;9.00;99.90;;;;;;5054310;28;20668;-39
2022/05/09 02:45:28;;;;;;;5.83;2.50;;;9.00;99.90;;;;;;5053837;28;20187;-42
2022/05/09 02:47:54;;;;;;;4.07;2.50;;;8.90;99.90;;;;;;5053882;28;20276;-40
2022/05/09 02:50:22;;;;;;;5.37;2.13;;;8.80;99.90;;;;;;5053979;28;20227;-41
2022/05/09 02:52:48;;;;;;;3.77;2.33;;;8.80;99.90;;;;;;5054082;28;20188;-40
2022/05/09 02:55:14;;;;;;;6.03;2.33;;;8.70;99.90;;;;;;5054012;28;20204;-41
2022/05/09 02:57:41;;;;;;;7.13;2.27;;;8.70;99.90;;;;;;5055723;28;20201;-37
2022/05/09 03:00:11;;;;;;;4.30;2.30;;;8.60;99.90;;;;;;5056475;28;20176;-38
2022/05/09 03:02:36;;;;;;;3.63;2.50;;;8.50;99.90;;;;;;5056547;28;20184;-38
2022/05/09 03:05:02;;;;;;;5.07;2.50;;;8.40;99.90;;;;;;5057315;28;20576;-41
2022/05/09 03:07:28;;;;;;;2.57;2.07;;;8.50;99.90;;;;;;5057538;28;20204;-39
2022/05/09 03:09:53;;;;;;;4.60;2.17;;;8.40;99.90;;;;;;5054014;28;20596;-40
2022/05/09 03:12:19;;;;;;;4.50;1.93;;;8.30;99.90;;;;;;5053973;28;20222;-38
2022/05/09 03:14:46;;;;;;;4.43;2.20;;;8.30;99.90;;;;;;5053663;28;20370;-40
2022/05/09 03:17:13;;;;;;;4.53;2.20;;;8.30;99.90;;;;;;5053346;28;20204;-38
2022/05/09 03:19:38;;;;;;;5.20;2.40;;;8.20;99.90;;;;;;5053192;28;20215;-38
2022/05/09 03:22:05;;;;;;;8.40;2.27;;;8.20;99.90;;;;;;5053747;28;20212;-38
2022/05/09 03:24:30;;;;;;;4.87;2.50;;;8.10;99.90;;;;;;5053802;28;20291;-39
2022/05/09 03:26:56;;;;;;;4.77;2.80;;;8.10;99.90;;;;;;5053423;28;20700;-40
2022/05/09 03:29:24;;;;;;;7.60;2.83;;;8.10;99.90;;;;;;5053232;28;20184;-39
2022/05/09 03:31:52;;;;;;;2.93;2.33;;;8.00;99.90;;;;;;5053455;28;20192;-38
2022/05/09 03:34:18;;;;;;;4.83;2.77;;;8.00;99.90;;;;;;5054137;28;20216;-39
2022/05/09 03:36:44;;;;;;;8.57;3.13;;;8.00;99.90;;;;;;5053545;28;20220;-39
2022/05/09 03:39:09;;;;;;;7.27;2.80;;;8.00;99.90;;;;;;5052953;28;20197;-40
2022/05/09 03:41:35;;;;;;;5.73;3.17;;;8.00;99.90;;;;;;5053061;28;20215;-39
2022/05/09 03:44:00;;;;;;;7.67;3.20;;;8.00;99.90;;;;;;5053367;28;20184;-40
2022/05/09 03:46:26;;;;;;;4.70;2.90;;;8.00;99.90;;;;;;5053186;28;20184;-40
2022/05/09 03:48:52;;;;;;;6.23;3.10;;;7.90;99.90;;;;;;5053058;28;20192;-41
2022/05/09 03:51:17;;;;;;;6.40;3.40;;;7.90;99.90;;;;;;5053023;28;20633;-39
2022/05/09 03:53:43;;;;;;;6.00;3.20;;;7.90;99.90;;;;;;5053197;28;20251;-39
2022/05/09 03:56:10;;;;;;;5.83;3.20;;;7.90;99.90;;;;;;5054613;28;20234;-40
2022/05/09 03:58:36;;;;;;;7.90;3.57;;;7.90;99.90;;;;;;5057376;28;20279;-40
2022/05/09 04:01:02;;;;;;;4.00;3.00;;;7.90;99.90;;;;;;5058081;28;20527;-41
2022/05/09 04:03:28;;;;;;;4.87;3.43;;;7.80;99.90;;;;;;5057205;28;20184;-37
2022/05/09 04:05:54;;;;;;;8.47;3.10;;;7.80;99.90;;;;;;5057242;28;20539;-39
2022/05/09 04:08:20;;;;;;;5.93;3.30;;;7.80;99.90;;;;;;5056849;28;20254;-39
2022/05/09 04:10:47;;;;;;;9.40;3.67;;;7.80;99.90;;;;;;5056960;28;20184;-40
2022/05/09 04:13:14;;;;;;;5.90;3.00;;;7.80;99.90;;;;;;5057568;28;20188;-40
2022/05/09 04:18:27;;;;;;;6.00;3.20;;;7.70;99.90;;;;;;5057071;28;20682;-40
2022/05/09 04:20:53;;;;;;;8.77;3.40;;;7.70;99.90;;;;;;5056720;28;20299;-39
2022/05/09 04:23:19;;;;;;;5.63;3.17;;;7.80;99.90;;;;;;5056810;28;20175;-39
2022/05/09 04:25:45;;;;;;;9.03;3.90;;;7.70;99.90;;;;;;5056664;28;20202;-40
2022/05/09 04:28:11;;;;;;;6.67;3.60;;;7.70;99.90;;;;;;5056822;28;20583;-39
2022/05/09 04:30:38;;;;;;;12.77;3.87;;;7.80;99.90;;;;;;5057152;28;20188;-39
2022/05/09 04:33:05;;;;;;;6.87;3.43;;;7.80;99.90;;;;;;5056900;28;20175;-39
2022/05/09 04:35:32;;;;;;;6.87;3.60;;;7.90;99.90;;;;;;5056491;28;20218;-41
2022/05/09 04:37:59;;;;;;;8.20;3.80;;;8.00;99.90;;;;;;5056534;28;20207;-41
2022/05/09 04:40:30;;;;;;;4.93;3.40;;;8.00;99.90;;;;;;5056563;28;20168;-40
2022/05/09 04:42:59;;;;;;;6.93;3.40;;;8.00;99.90;;;;;;5056462;28;20196;-40
2022/05/09 04:45:27;;;;;;;6.27;3.53;;;8.00;99.90;;;;;;5056675;28;20646;-41
2022/05/09 04:47:53;;;;;;;7.43;3.17;;;8.00;99.90;;;;;;5056154;28;20196;-39
2022/05/09 04:50:22;;;;;;;5.20;3.10;;;8.00;99.90;;;;;;5056291;28;20181;-42
2022/05/09 04:52:48;;;;;;;9.77;3.77;;;8.10;99.90;;;;;;5056606;28;20248;-38
2022/05/09 04:55:15;;;;;;;7.53;3.73;;;8.10;99.90;;;;;;5056149;28;20277;-40
2022/05/09 04:57:41;;;;;;;8.23;3.30;;;8.10;99.90;;;;;;5056190;28;20204;-39
2022/05/09 05:00:10;;;;;;;6.50;3.33;;;8.10;99.90;;;;;;5056289;28;20183;-38
2022/05/09 05:02:36;;;;;;;7.43;2.83;;;8.20;99.90;;;;;;5056015;28;20203;-44
2022/05/09 05:05:02;;;;;;;4.87;2.73;;;8.20;99.90;;;;;;5058909;28;20180;-45
2022/05/09 05:07:28;;;;;;;6.83;3.50;;;8.20;99.90;;;;;;5057547;28;20220;-45
2022/05/09 05:09:54;;;;;;;4.97;3.20;;;8.20;99.90;;;;;;5058451;28;20172;-45
2022/05/09 05:12:19;;;;;;;6.53;4.00;;;8.30;99.90;;;;;;5059989;28;20184;-41
2022/05/09 05:14:45;;;;;;;6.47;3.57;;;8.30;99.90;;;;;;5060692;28;20200;-43
2022/05/09 05:17:11;;;;;;;7.47;3.77;;;8.40;99.90;;;;;;5060002;28;20223;-46
2022/05/09 05:19:40;;;;;;;7.40;4.20;;;8.40;99.90;;;;;;5060228;28;20176;-44
2022/05/09 05:22:07;;;;;;;7.33;4.30;;;8.50;99.90;;;;;;5060610;28;20183;-44
2022/05/09 05:24:34;;;;;;;10.37;4.20;;;8.50;99.90;;;;;;5060380;28;20191;-43
2022/05/09 05:27:00;;;;;;;13.23;4.80;;;8.70;99.90;;;;;;5060098;28;20211;-44
2022/05/09 05:29:26;;;;;;;12.60;4.70;;;8.80;99.90;;;;;;5060478;28;20211;-43
2022/05/09 05:31:52;;;;;;;9.97;4.67;;;8.80;99.90;;;;;;5059764;28;20195;-42
2022/05/09 05:34:18;;;;;;;8.73;3.83;;;9.00;99.90;;;;;;5060065;28;20200;-44
2022/05/09 05:36:44;;;;;;;11.33;4.23;;;9.10;99.90;;;;;;5060311;28;20277;-44
2022/05/09 05:39:13;;;;;;;9.87;4.07;;;9.20;99.90;;;;;;5058201;28;20188;-44
2022/05/09 05:41:39;;;;;;;11.37;4.70;;;9.30;99.90;;;;;;5059752;28;20517;-43
2022/05/09 05:44:08;;;;;;;8.87;4.63;;;9.50;99.90;;;;;;5059569;28;20190;-45
2022/05/09 05:46:34;;;;;;;9.50;4.20;;;9.70;99.90;;;;;;5059031;28;20179;-43
2022/05/09 05:49:00;;;;;;;8.90;4.40;;;9.80;99.90;;;;;;5059256;28;20177;-43
2022/05/09 05:51:26;;;;;;;11.10;4.33;;;9.90;99.90;;;;;;5059360;28;20648;-43
2022/05/09 05:53:54;;;;;;;10.13;4.70;;;10.00;99.90;;;;;;5059158;28;20216;-45
2022/05/09 05:56:20;;;;;;;9.07;4.10;;;10.20;99.90;;;;;;5058530;28;20184;-44
2022/05/09 05:58:45;;;;;;;8.67;4.73;;;10.40;99.90;;;;;;5058075;28;20219;-42
2022/05/09 06:01:11;;;;;;;8.77;4.90;;;10.60;99.90;;;;;;5056576;28;20180;-44
2022/05/09 06:03:36;;;;;;;11.27;4.27;;;10.70;99.90;;;;;;5058145;28;20195;-44
2022/05/09 06:06:02;;;;;;;10.90;4.57;;;11.10;99.90;;;;;;5057751;28;20699;-44
2022/05/09 06:08:28;;;;;;;12.97;4.50;;;11.30;99.90;;;;;;5057541;28;20203;-42
2022/05/09 06:10:54;;;;;;;11.70;4.37;;;11.60;99.90;;;;;;5057395;28;20181;-45
2022/05/09 06:13:19;;;;;;;16.80;4.70;;;11.80;99.90;;;;;;5058249;28;20204;-45
2022/05/09 06:15:45;;;;;;;6.63;4.03;;;12.00;99.90;;;;;;5057455;28;20180;-43
2022/05/09 06:18:14;;;;;;;11.40;4.60;;;12.20;99.90;;;;;;5057883;28;20199;-43
2022/05/09 06:20:43;;;;;;;10.13;3.70;;;12.50;99.90;;;;;;5058168;28;20259;-43
2022/05/09 06:23:12;;;;;;;13.40;4.50;;;12.80;99.90;;;;;;5058061;28;20582;-45
2022/05/09 06:25:38;;;;;;;7.80;3.77;;;13.10;99.90;;;;;;5058647;28;20547;-45
2022/05/09 06:28:05;;;;;;;9.93;4.17;;;13.40;99.90;;;;;;5057992;28;20218;-44
2022/05/09 06:30:31;;;;;;;9.27;4.10;;;13.60;99.90;;;;;;5057827;28;20213;-44
2022/05/09 06:32:58;;;;;;;6.43;3.43;;;13.80;99.90;;;;;;5057923;28;20254;-43
2022/05/09 06:35:26;;;;;;;8.50;4.27;;;14.00;99.90;;;;;;5057455;28;20220;-44
2022/05/09 06:37:57;;;;;;;10.77;4.03;;;14.20;99.90;;;;;;5056871;28;20227;-41
2022/05/09 06:40:23;;;;;;;5.40;3.30;;;14.50;99.90;;;;;;5056759;28;20599;-46
2022/05/09 06:42:51;;;;;;;8.73;3.23;;;14.70;99.90;;;;;;5056150;28;20192;-44
2022/05/09 06:45:17;;;;;;;5.53;3.03;;;15.00;99.90;;;;;;5056531;28;20209;-47
2022/05/09 06:47:51;;;;;;;6.60;3.47;;;15.10;99.90;;;;;;5057298;28;20218;-46
2022/05/09 06:50:18;;;;;;;9.57;3.57;;;15.30;99.90;;;;;;5057002;28;20672;-46
2022/05/09 06:52:44;;;;;;;7.77;3.27;;;15.50;99.90;;;;;;5058145;28;20251;-44
2022/05/09 06:55:11;;;;;;;8.17;3.30;;;15.60;99.90;;;;;;5058025;28;20213;-45
2022/05/09 06:57:38;;;;;;;5.10;3.13;;;15.80;99.90;;;;;;5058804;28;20283;-45
2022/05/09 07:00:07;;;;;;;9.00;3.60;;;16.00;99.90;;;;;;5058237;28;20187;-44
2022/05/09 07:02:33;;;;;;;5.37;3.33;;;16.20;99.90;;;;;;5058299;28;20185;-45
2022/05/09 07:04:59;;;;;;;6.93;3.40;;;16.30;99.90;;;;;;5057636;28;20259;-42
2022/05/09 07:07:24;;;;;;;7.93;3.70;;;16.40;99.90;;;;;;5057276;28;20204;-42
2022/05/09 07:09:50;;;;;;;10.33;3.73;;;16.50;99.90;;;;;;5057494;28;20267;-45
2022/05/09 07:12:16;;;;;;;6.73;3.60;;;16.70;99.90;;;;;;5057160;28;20706;-48
2022/05/09 07:14:41;;;;;;;7.53;3.47;;;16.70;99.90;;;;;;5057493;28;20223;-44
2022/05/09 07:17:07;;;;;;;9.17;3.57;;;16.90;99.90;;;;;;5056794;28;20204;-46
2022/05/09 07:19:32;;;;;;;8.70;3.60;;;17.00;99.90;;;;;;5058088;28;20663;-44
2022/05/09 07:21:58;;;;;;;9.87;3.70;;;17.10;99.90;;;;;;5058099;28;20192;-45
2022/05/09 07:24:24;;;;;;;10.13;3.60;;;17.30;99.90;;;;;;5057541;28;20223;-45
2022/05/09 07:26:49;;;;;;;9.97;3.73;;;17.30;99.90;;;;;;5058040;28;20200;-45
2022/05/09 07:29:16;;;;;;;6.60;3.60;;;17.50;99.90;;;;;;5057273;28;20184;-47
2022/05/09 07:31:41;;;;;;;9.97;3.70;;;17.60;99.90;;;;;;5056645;28;20184;-45
2022/05/09 07:34:07;;;;;;;12.47;3.60;;;17.70;99.90;;;;;;5056353;28;20204;-44
2022/05/09 07:36:33;;;;;;;5.33;2.63;;;17.80;99.90;;;;;;5056603;28;20271;-45
2022/05/09 07:38:59;;;;;;;6.90;2.77;;;18.00;99.90;;;;;;5056518;28;20624;-45
2022/05/09 07:41:24;;;;;;;4.43;2.70;;;18.20;99.90;;;;;;5055904;28;20594;-46
2022/05/09 07:43:50;;;;;;;4.27;1.90;;;18.30;99.90;;;;;;5056229;28;20179;-45
2022/05/09 07:46:16;;;;;;;13.93;2.77;;;18.40;99.90;;;;;;5056068;28;20183;-46
2022/05/09 07:48:41;;;;;;;7.13;3.20;;;18.30;99.90;;;;;;5055857;28;20231;-45
2022/05/09 07:51:07;;;;;;;5.23;2.90;;;18.40;99.90;;;;;;5056320;28;20187;-45
2022/05/09 07:53:34;;;;;;;6.30;2.90;;;18.50;99.90;;;;;;5056164;28;20212;-45
2022/05/09 07:56:02;;;;;;;7.17;3.17;;;18.50;99.90;;;;;;5055832;28;20180;-46
2022/05/09 07:58:28;;;;;;;9.50;3.03;;;18.60;99.90;;;;;;5055215;28;20708;-44
2022/05/09 08:00:58;;;;;;;7.17;2.80;;;18.70;99.90;;;;;;5055043;28;20203;-45
2022/05/09 08:03:26;;;;;;;9.57;3.33;;;18.90;99.90;;;;;;5055116;28;20167;-44
2022/05/09 08:05:56;;;;;;;6.23;3.10;;;19.00;99.90;;;;;;5055323;28;20629;-45
2022/05/09 08:08:22;;;;;;;7.83;3.40;;;19.00;99.90;;;;;;5055017;28;20283;-46
2022/05/09 08:10:48;;;;;;;4.63;2.47;;;18.90;99.90;;;;;;5055282;28;20180;-45
2022/05/09 08:13:16;;;;;;;5.43;2.87;;;19.00;99.90;;;;;;5054992;28;20230;-45
2022/05/09 08:15:44;;;;;;;4.20;2.80;;;19.10;99.90;;;;;;5055211;28;20239;-47
2022/05/09 08:18:10;;;;;;;5.63;3.27;;;19.20;99.90;;;;;;5054838;28;20208;-45
2022/05/09 08:20:38;;;;;;;7.60;3.10;;;19.40;99.90;;;;;;5055184;28;20172;-46
2022/05/09 08:23:10;;;;;;;8.47;3.33;;;19.60;99.90;;;;;;5054325;28;20271;-45
2022/05/09 08:25:38;;;;;;;7.67;3.23;;;19.80;99.90;;;;;;5054462;28;20553;-46
2022/05/09 08:28:05;;;;;;;5.77;3.17;;;19.90;99.90;;;;;;5053719;28;20200;-46
2022/05/09 08:30:33;;;;;;;5.77;3.37;;;20.10;99.90;;;;;;5053552;28;20188;-46
2022/05/09 08:33:07;;;;;;;5.43;3.20;;;20.20;99.90;;;;;;5053597;28;20550;-45
2022/05/09 08:35:33;;;;;;;5.67;3.20;;;20.20;99.90;;;;;;5053747;28;20200;-46
2022/05/09 08:37:59;;;;;;;8.57;3.60;;;20.30;99.90;;;;;;5053649;28;20204;-46
2022/05/09 08:41:07;;;;;;;7.70;3.20;;;20.30;99.90;;;;;;5053672;28;20530;-47
2022/05/09 08:44:03;;;;;;;6.53;3.57;;;20.40;99.90;;;;;;5049711;28;20539;-47
2022/05/09 08:47:10;;;;;;;9.07;3.97;;;20.50;99.90;;;;;;5058450;28;20160;-47
2022/05/09 08:49:50;;;;;;;5.60;3.40;;;20.50;99.90;;;;;;5057901;28;20160;-47
2022/05/09 08:52:36;;;;;;;6.53;3.37;;;20.50;99.90;;;;;;5058108;28;20164;-46
2022/05/09 08:55:02;;;;;;;6.10;3.43;;;20.60;99.90;;;;;;5058130;28;20566;-47
2022/05/09 08:57:43;;;;;;;10.83;3.43;;;20.70;99.90;;;;;;5057799;28;20200;-47
2022/05/09 09:00:17;;;;;;;7.93;3.93;;;20.80;99.90;;;;;;5058102;28;20226;-46
2022/05/09 09:03:14;;;;;;;8.70;3.47;;;21.00;99.90;;;;;;5057878;28;20168;-46
2022/05/09 09:05:44;;;;;;;6.00;3.07;;;21.10;99.90;;;;;;5057400;28;20178;-46
2022/05/09 09:08:26;;;;;;;5.73;3.10;;;21.20;99.90;;;;;;5056643;28;20195;-47
2022/05/09 09:11:26;;;;;;;7.03;3.70;;;21.30;99.90;;;;;;5056662;28;20200;-46
2022/05/09 09:14:10;;;;;;;5.77;3.37;;;21.50;99.90;;;;;;5056973;28;20192;-46
2022/05/09 09:17:08;;;;;;;6.77;3.23;;;21.60;99.90;;;;;;5057127;28;20226;-47
2022/05/09 09:19:57;;;;;;;4.23;2.90;;;21.70;99.90;;;;;;5056275;28;20267;-46
2022/05/09 09:22:51;;;;;;;6.30;3.27;;;21.90;99.90;;;;;;5056731;28;20168;-46
2022/05/09 09:25:41;;;;;;;8.27;3.60;;;21.90;99.90;;;;;;5056785;28;20164;-47
2022/05/09 09:28:13;;;;;;;10.23;2.97;;;22.00;99.90;;;;;;5056552;28;20199;-47
2022/05/09 09:30:40;;;;;;;8.37;3.20;;;22.00;99.90;;;;;;5055757;28;20291;-46
2022/05/09 09:33:08;;;;;;;4.60;2.93;;;22.10;99.90;;;;;;5057439;28;20208;-46
2022/05/09 09:36:00;;;;;;;7.43;2.83;;;22.10;99.90;;;;;;5057847;28;20211;-46
2022/05/09 09:38:45;;;;;;;10.57;3.50;;;22.30;99.90;;;;;;5058017;28;20300;-47
2022/05/09 09:41:33;;;;;;;6.10;3.07;;;22.40;99.90;;;;;;5057879;28;20169;-46
2022/05/09 09:44:04;;;;;;;8.53;3.27;;;22.40;99.90;;;;;;5058569;28;20204;-45
2022/05/09 09:46:29;;;;;;;11.07;3.47;;;22.50;99.90;;;;;;5057571;28;20164;-46
2022/05/09 09:49:07;;;;;;;14.63;3.07;;;22.60;99.90;;;;;;5057428;28;20180;-46
2022/05/09 09:51:45;;;;;;;6.10;2.63;;;22.70;99.90;;;;;;5057543;28;20230;-46
2022/05/09 09:54:11;;;;;;;6.47;3.63;;;22.80;99.90;;;;;;5056547;28;20223;-46
2022/05/09 09:56:38;;;;;;;11.17;4.40;;;22.90;99.90;;;;;;5056434;28;20180;-47
2022/05/09 09:59:09;;;;;;;8.37;3.90;;;23.00;99.90;;;;;;5057406;28;20569;-46
2022/05/09 10:01:35;;;;;;;10.30;3.23;;;23.10;99.90;;;;;;5056647;28;20290;-46
2022/05/09 10:04:09;;;;;;;9.73;4.07;;;23.20;99.90;;;;;;5056226;28;20201;-46
2022/05/09 10:06:58;;;;;;;8.17;3.50;;;23.30;99.90;;;;;;5056764;28;20208;-46
2022/05/09 10:09:25;;;;;;;7.77;3.73;;;23.40;99.90;;;;;;5053068;28;20184;-45
2022/05/09 10:11:50;;;;;;;10.37;3.40;;;23.40;99.90;;;;;;5056484;28;20648;-47
2022/05/09 10:14:35;;;;;;;8.97;3.33;;;23.50;99.90;;;;;;5057648;28;20204;-46
2022/05/09 10:17:19;;;;;;;7.23;3.90;;;23.70;99.90;;;;;;5057614;28;20259;-47
2022/05/09 10:19:45;;;;;;;7.60;3.07;;;23.80;99.90;;;;;;5057378;28;20580;-47
2022/05/09 10:25:15;;;;;;;7.53;3.37;;;24.00;99.90;;;;;;5057450;28;20178;-46
2022/05/09 10:27:41;;;;;;;5.60;3.60;;;24.20;99.90;;;;;;5056516;28;20208;-46
2022/05/09 10:30:14;;;;;;;9.27;3.40;;;24.30;99.90;;;;;;5056182;28;20203;-48
2022/05/09 10:33:05;;;;;;;4.90;3.30;;;24.40;99.90;;;;;;5055031;28;20196;-46
2022/05/09 10:35:35;;;;;;;6.60;3.47;;;24.60;99.90;;;;;;5055198;28;20279;-48
2022/05/09 10:38:12;;;;;;;8.60;3.43;;;24.70;99.90;;;;;;5054217;28;20200;-47
2022/05/09 10:40:45;;;;;;;7.93;3.80;;;24.80;99.90;;;;;;5054717;28;20148;-41
2022/05/09 10:43:27;;;;;;;6.80;3.57;;;24.70;99.90;;;;;;5054827;28;20252;-42
2022/05/09 10:45:54;;;;;;;6.37;3.53;;;24.60;99.90;;;;;;5054789;28;20243;-40
2022/05/09 10:48:36;;;;;;;4.53;3.20;;;24.50;99.90;;;;;;5054541;28;20201;-41
2022/05/09 10:51:04;;;;;;;6.03;3.27;;;24.50;99.90;;;;;;5054651;28;20164;-41
2022/05/09 10:53:53;;;;;;;7.20;3.70;;;24.60;99.90;;;;;;5055121;28;20176;-41
2022/05/09 10:56:18;;;;;;;3.70;3.17;;;24.70;99.90;;;;;;5055119;28;20161;-40
2022/05/09 10:58:53;;;;;;;6.67;3.27;;;24.60;99.90;;;;;;5054722;28;20197;-42
2022/05/09 11:01:25;;;;;;;4.53;2.87;;;24.40;99.90;;;;;;5055015;28;20179;-40
2022/05/09 11:03:53;;;;;;;4.93;2.70;;;24.40;99.90;;;;;;5053878;28;20184;-41
2022/05/09 11:06:21;;;;;;;7.53;3.63;;;24.40;99.90;;;;;;5053775;28;20271;-41
2022/05/09 11:09:11;;;;;;;6.90;3.80;;;24.50;99.90;;;;;;5053823;28;20173;-42
2022/05/09 11:12:01;;;;;;;6.77;3.17;;;24.40;99.90;;;;;;5053828;28;20164;-38
2022/05/09 11:14:36;;;;;;;4.47;2.70;;;24.50;99.90;;;;;;5053602;28;20652;-39
2022/05/09 11:17:37;;;;;;;5.97;3.00;;;24.70;99.90;;;;;;5054193;28;20199;-41
2022/05/09 11:20:12;;;;;;;3.33;2.60;;;25.00;99.90;;;;;;5053716;28;20165;-39
2022/05/09 11:22:49;;;;;;;5.55;2.95;;;25.10;99.90;;;;;;5053911;28;20199;-40
2022/05/09 11:25:28;;;;;;;5.22;2.80;;;25.30;99.90;;;;;;5053738;28;20168;-40
2022/05/09 11:27:54;;;;;;;3.72;3.05;;;25.60;99.90;;;;;;5053846;28;20274;-46
2022/05/09 11:30:31;;;;;;;5.28;2.90;;;25.80;99.90;;;;;;5053455;28;20691;-46
2022/05/09 11:33:06;;;;;;;6.45;3.30;;;25.90;99.90;;;;;;5053680;28;20164;-48
2022/05/09 11:35:36;;;;;;;5.65;2.90;;;25.80;99.90;;;;;;5053486;28;20210;-48
2022/05/09 11:38:17;;;;;;;4.82;3.03;;;25.80;99.90;;;;;;5053489;28;20240;-48
2022/05/09 11:41:14;;;;;;;4.30;2.38;;;25.90;99.90;;;;;;5053469;28;20226;-48
2022/05/09 11:44:00;;;;;;;6.35;2.78;;;26.00;99.90;;;;;;5046080;28;20581;-47
2022/05/09 11:46:43;;;;;;;3.72;2.95;;;25.80;99.90;;;;;;5042319;28;20188;-47
2022/05/09 11:49:17;;;;;;;6.20;2.67;;;25.60;99.90;;;;;;5053856;28;20168;-47
2022/05/09 11:52:02;;;;;;;6.47;3.15;;;25.60;99.90;;;;;;5053938;28;20222;-47
2022/05/09 11:54:34;;;;;;;7.10;2.90;;;25.80;99.90;;;;;;5054083;28;20542;-47
2022/05/09 11:57:03;;;;;;;4.20;2.60;;;25.90;99.90;;;;;;5053700;28;20211;-47
2022/05/09 11:59:31;;;;;;;3.83;2.70;;;26.10;99.90;;;;;;5053410;28;20187;-46
2022/05/09 12:02:10;;;;;;;6.22;2.60;;;26.30;99.90;;;;;;5052225;28;20179;-47
2022/05/09 12:04:36;;;;;;;6.03;2.45;;;26.40;99.90;;;;;;5054034;28;20187;-48
2022/05/09 12:07:22;;;;;;;7.45;2.72;;;26.60;99.90;;;;;;5054265;28;20200;-48
2022/05/09 12:09:58;;;;;;;3.03;2.65;;;27.00;99.90;;;;;;5043455;28;20194;-48
2022/05/09 12:12:41;;;;;;;5.03;2.38;;;27.20;99.90;;;;;;5054322;28;20229;-49
2022/05/09 12:15:16;;;;;;;6.60;2.85;;;27.20;99.90;;;;;;5054099;28;20206;-48
2022/05/09 12:17:48;;;;;;;4.30;2.50;;;27.20;99.90;;;;;;5055764;28;20602;-47
2022/05/09 12:20:25;;;;;;;4.38;2.70;;;27.10;99.90;;;;;;5058694;28;20175;-48
2022/05/09 12:22:52;;;;;;;3.17;2.72;;;26.70;99.90;;;;;;5058113;28;20175;-49
2022/05/09 12:25:36;;;;;;;6.68;3.03;;;26.70;99.90;;;;;;5056842;28;20573;-47
2022/05/09 12:28:07;;;;;;;5.18;2.65;;;26.90;99.90;;;;;;5057979;28;20645;-47
2022/05/09 12:30:49;;;;;;;3.35;3.03;;;26.90;99.90;;;;;;5057804;28;20183;-48
2022/05/09 12:33:21;;;;;;;4.80;3.28;;;27.00;99.90;;;;;;5058201;28;20214;-48
2022/05/09 12:35:50;;;;;;;4.38;2.58;;;27.10;99.90;;;;;;5057534;28;20203;-48
2022/05/09 12:38:22;;;;;;;4.57;3.00;;;27.20;99.90;;;;;;5057197;28;20203;-47
2022/05/09 12:40:55;;;;;;;5.55;2.90;;;27.40;99.90;;;;;;5057583;28;20187;-47
2022/05/09 12:43:22;;;;;;;5.18;3.00;;;27.60;99.90;;;;;;5057444;28;20157;-48
2022/05/09 12:45:47;;;;;;;4.55;3.28;;;27.50;99.90;;;;;;5057032;28;20234;-48
2022/05/09 12:48:14;;;;;;;8.43;2.90;;;27.40;99.90;;;;;;5056831;28;20199;-47
2022/05/09 12:50:43;;;;;;;6.35;3.10;;;27.20;99.90;;;;;;5056869;28;20195;-46
2022/05/09 12:53:12;;;;;;;4.10;2.58;;;27.10;99.90;;;;;;5056864;28;20176;-47
2022/05/09 12:55:55;;;;;;;6.32;2.78;;;27.00;99.90;;;;;;5056851;28;20675;-47
2022/05/09 12:58:27;;;;;;;5.70;2.53;;;26.70;99.90;;;;;;5056845;28;20200;-47
2022/05/09 13:01:10;;;;;;;3.75;2.38;;;26.70;99.90;;;;;;5056806;28;20177;-45
2022/05/09 13:03:51;;;;;;;5.07;2.80;;;26.90;99.90;;;;;;5056410;28;20188;-48
2022/05/09 13:06:21;;;;;;;2.70;2.20;;;27.20;99.90;;;;;;5056628;28;20172;-48
2022/05/09 13:08:47;;;;;;;3.38;2.53;;;27.60;99.90;;;;;;5056690;28;20180;-47
2022/05/09 13:11:17;;;;;;;3.50;2.28;;;27.90;99.90;;;;;;5056539;28;20188;-47
2022/05/09 13:13:58;;;;;;;3.50;2.58;;;28.10;99.90;;;;;;5056722;28;20184;-47
2022/05/09 13:16:29;;;;;;;5.32;2.55;;;28.30;99.90;;;;;;5056207;28;20203;-48